sensor_id;sensor_type;location;lat;lon;timestamp;P1;durP1;ratioP1;P2;durP2;ratioP2
2728;SDS011;1372;47.956;7.830;2022-08-03T00:02:37;1.30;;;1.20;;
2728;SDS011;1372;47.956;7.830;2022-08-03T00:05:08;1.40;;;1.30;;
2728;SDS011;1372;47.956;7.830;2022-08-03T00:07:56;1.27;;;1.17;;
2728;SDS011;1372;47.956;7.830;2022-08-03T00:10:25;1.50;;;1.40;;
2728;SDS011;1372;47.956;7.830;2022-08-03T00:12:54;1.40;;;1.30;;
2728;SDS011;1372;47.956;7.830;2022-08-03T00:15:23;1.23;;;1.13;;
2728;SDS011;1372;47.956;7.830;2022-08-03T00:17:52;1.50;;;1.40;;
2728;SDS011;1372;47.956;7.830;2022-08-03T00:20:23;1.40;;;1.30;;
2728;SDS011;1372;47.956;7.830;2022-08-03T00:22:55;1.37;;;1.27;;
2728;SDS011;1372;47.956;7.830;2022-08-03T00:25:44;1.37;;;1.27;;
2728;SDS011;1372;47.956;7.830;2022-08-03T00:28:12;1.37;;;1.27;;
2728;SDS011;1372;47.956;7.830;2022-08-03T00:30:43;1.40;;;1.30;;
2728;SDS011;1372;47.956;7.830;2022-08-03T00:33:12;1.40;;;1.30;;
2728;SDS011;1372;47.956;7.830;2022-08-03T00:35:42;1.27;;;1.20;;
2728;SDS011;1372;47.956;7.830;2022-08-03T00:38:16;1.40;;;1.30;;
2728;SDS011;1372;47.956;7.830;2022-08-03T00:40:45;1.10;;;1.10;;
2728;SDS011;1372;47.956;7.830;2022-08-03T00:43:15;1.30;;;1.17;;
2728;SDS011;1372;47.956;7.830;2022-08-03T00:45:43;1.30;;;1.20;;
2728;SDS011;1372;47.956;7.830;2022-08-03T00:48:12;1.30;;;1.20;;
2728;SDS011;1372;47.956;7.830;2022-08-03T00:51:06;1.50;;;1.37;;
2728;SDS011;1372;47.956;7.830;2022-08-03T00:53:35;1.40;;;1.30;;
2728;SDS011;1372;47.956;7.830;2022-08-03T00:56:04;2.00;;;1.17;;
2728;SDS011;1372;47.956;7.830;2022-08-03T00:58:33;1.33;;;1.23;;
2728;SDS011;1372;47.956;7.830;2022-08-03T01:01:01;1.40;;;1.30;;
2728;SDS011;1372;47.956;7.830;2022-08-03T01:03:32;1.70;;;1.37;;
2728;SDS011;1372;47.956;7.830;2022-08-03T01:06:03;1.30;;;1.20;;
2728;SDS011;1372;47.956;7.830;2022-08-03T01:09:01;1.60;;;1.50;;
2728;SDS011;1372;47.956;7.830;2022-08-03T01:11:37;1.60;;;1.33;;
2728;SDS011;1372;47.956;7.830;2022-08-03T01:14:30;1.37;;;1.27;;
2728;SDS011;1372;47.956;7.830;2022-08-03T01:17:07;1.17;;;1.10;;
2728;SDS011;1372;47.956;7.830;2022-08-03T01:20:03;1.70;;;1.60;;
2728;SDS011;1372;47.956;7.830;2022-08-03T01:22:49;1.50;;;1.40;;
2728;SDS011;1372;47.956;7.830;2022-08-03T01:25:33;1.73;;;1.40;;
2728;SDS011;1372;47.956;7.830;2022-08-03T01:28:15;1.40;;;1.30;;
2728;SDS011;1372;47.956;7.830;2022-08-03T01:30:59;1.60;;;1.50;;
2728;SDS011;1372;47.956;7.830;2022-08-03T01:33:55;1.20;;;1.20;;
2728;SDS011;1372;47.956;7.830;2022-08-03T01:36:29;1.43;;;1.33;;
2728;SDS011;1372;47.956;7.830;2022-08-03T01:39:04;1.67;;;1.57;;
2728;SDS011;1372;47.956;7.830;2022-08-03T01:41:36;1.43;;;1.33;;
2728;SDS011;1372;47.956;7.830;2022-08-03T01:44:11;1.40;;;1.30;;
2728;SDS011;1372;47.956;7.830;2022-08-03T01:46:58;1.90;;;1.57;;
2728;SDS011;1372;47.956;7.830;2022-08-03T01:49:29;1.70;;;1.60;;
2728;SDS011;1372;47.956;7.830;2022-08-03T01:52:03;1.33;;;1.23;;
2728;SDS011;1372;47.956;7.830;2022-08-03T01:54:34;1.30;;;1.20;;
2728;SDS011;1372;47.956;7.830;2022-08-03T01:57:08;1.83;;;1.40;;
2728;SDS011;1372;47.956;7.830;2022-08-03T01:59:37;1.97;;;1.87;;
2728;SDS011;1372;47.956;7.830;2022-08-03T02:02:12;1.73;;;1.63;;
2728;SDS011;1372;47.956;7.830;2022-08-03T02:05:00;1.70;;;1.53;;
2728;SDS011;1372;47.956;7.830;2022-08-03T02:07:36;1.20;;;1.10;;
2728;SDS011;1372;47.956;7.830;2022-08-03T02:10:28;1.70;;;1.30;;
2728;SDS011;1372;47.956;7.830;2022-08-03T02:13:02;2.13;;;1.40;;
2728;SDS011;1372;47.956;7.830;2022-08-03T02:15:35;1.27;;;1.17;;
2728;SDS011;1372;47.956;7.830;2022-08-03T02:18:06;1.67;;;1.57;;
2728;SDS011;1372;47.956;7.830;2022-08-03T02:20:37;1.60;;;1.50;;
2728;SDS011;1372;47.956;7.830;2022-08-03T02:23:08;1.50;;;1.40;;
2728;SDS011;1372;47.956;7.830;2022-08-03T02:25:41;1.70;;;1.60;;
2728;SDS011;1372;47.956;7.830;2022-08-03T02:28:34;1.40;;;1.30;;
2728;SDS011;1372;47.956;7.830;2022-08-03T02:31:06;1.83;;;1.73;;
2728;SDS011;1372;47.956;7.830;2022-08-03T02:34:02;1.40;;;1.30;;
2728;SDS011;1372;47.956;7.830;2022-08-03T02:36:37;1.77;;;1.67;;
2728;SDS011;1372;47.956;7.830;2022-08-03T02:39:09;1.40;;;1.27;;
2728;SDS011;1372;47.956;7.830;2022-08-03T02:41:41;1.23;;;1.17;;
2728;SDS011;1372;47.956;7.830;2022-08-03T02:44:13;1.50;;;1.40;;
2728;SDS011;1372;47.956;7.830;2022-08-03T02:46:44;1.43;;;1.33;;
2728;SDS011;1372;47.956;7.830;2022-08-03T02:49:17;1.70;;;1.60;;
2728;SDS011;1372;47.956;7.830;2022-08-03T02:52:01;1.53;;;1.43;;
2728;SDS011;1372;47.956;7.830;2022-08-03T02:54:32;1.43;;;1.33;;
2728;SDS011;1372;47.956;7.830;2022-08-03T02:57:03;1.83;;;1.73;;
2728;SDS011;1372;47.956;7.830;2022-08-03T02:59:36;1.40;;;1.30;;
2728;SDS011;1372;47.956;7.830;2022-08-03T03:02:07;1.37;;;1.27;;
2728;SDS011;1372;47.956;7.830;2022-08-03T03:04:39;1.33;;;1.23;;
2728;SDS011;1372;47.956;7.830;2022-08-03T03:07:25;1.80;;;1.40;;
2728;SDS011;1372;47.956;7.830;2022-08-03T03:09:55;1.57;;;1.47;;
2728;SDS011;1372;47.956;7.830;2022-08-03T03:12:23;1.50;;;1.40;;
2728;SDS011;1372;47.956;7.830;2022-08-03T03:14:54;2.70;;;1.73;;
2728;SDS011;1372;47.956;7.830;2022-08-03T03:17:23;1.43;;;1.33;;
2728;SDS011;1372;47.956;7.830;2022-08-03T03:19:54;1.53;;;1.40;;
2728;SDS011;1372;47.956;7.830;2022-08-03T03:22:25;1.70;;;1.60;;
2728;SDS011;1372;47.956;7.830;2022-08-03T03:24:54;1.20;;;1.10;;
2728;SDS011;1372;47.956;7.830;2022-08-03T03:27:26;1.67;;;1.50;;
2728;SDS011;1372;47.956;7.830;2022-08-03T03:29:54;1.87;;;1.77;;
2728;SDS011;1372;47.956;7.830;2022-08-03T03:32:25;1.80;;;1.70;;
2728;SDS011;1372;47.956;7.830;2022-08-03T03:34:58;1.77;;;1.67;;
2728;SDS011;1372;47.956;7.830;2022-08-03T03:37:27;2.90;;;1.50;;
2728;SDS011;1372;47.956;7.830;2022-08-03T03:39:59;2.60;;;1.77;;
2728;SDS011;1372;47.956;7.830;2022-08-03T03:42:29;2.07;;;1.90;;
2728;SDS011;1372;47.956;7.830;2022-08-03T03:45:01;1.83;;;1.53;;
2728;SDS011;1372;47.956;7.830;2022-08-03T03:47:32;1.80;;;1.70;;
2728;SDS011;1372;47.956;7.830;2022-08-03T03:50:03;1.47;;;1.37;;
2728;SDS011;1372;47.956;7.830;2022-08-03T03:52:36;2.13;;;1.60;;
2728;SDS011;1372;47.956;7.830;2022-08-03T03:55:24;1.70;;;1.60;;
2728;SDS011;1372;47.956;7.830;2022-08-03T03:57:53;1.60;;;1.50;;
2728;SDS011;1372;47.956;7.830;2022-08-03T04:00:22;1.60;;;1.50;;
2728;SDS011;1372;47.956;7.830;2022-08-03T04:02:53;1.60;;;1.50;;
2728;SDS011;1372;47.956;7.830;2022-08-03T04:05:25;1.87;;;1.77;;
2728;SDS011;1372;47.956;7.830;2022-08-03T04:08:13;2.33;;;1.80;;
2728;SDS011;1372;47.956;7.830;2022-08-03T04:11:02;1.80;;;1.70;;
2728;SDS011;1372;47.956;7.830;2022-08-03T04:13:40;2.17;;;2.07;;
2728;SDS011;1372;47.956;7.830;2022-08-03T04:16:14;2.33;;;2.13;;
2728;SDS011;1372;47.956;7.830;2022-08-03T04:18:50;2.60;;;1.87;;
2728;SDS011;1372;47.956;7.830;2022-08-03T04:21:33;1.97;;;1.87;;
2728;SDS011;1372;47.956;7.830;2022-08-03T04:24:05;1.30;;;1.20;;
2728;SDS011;1372;47.956;7.830;2022-08-03T04:26:38;3.20;;;1.80;;
2728;SDS011;1372;47.956;7.830;2022-08-03T04:29:09;2.33;;;2.00;;
2728;SDS011;1372;47.956;7.830;2022-08-03T04:31:58;1.87;;;1.77;;
2728;SDS011;1372;47.956;7.830;2022-08-03T04:34:29;1.80;;;1.70;;
2728;SDS011;1372;47.956;7.830;2022-08-03T04:37:00;1.83;;;1.73;;
2728;SDS011;1372;47.956;7.830;2022-08-03T04:39:34;2.47;;;1.90;;
2728;SDS011;1372;47.956;7.830;2022-08-03T04:42:05;1.43;;;1.33;;
2728;SDS011;1372;47.956;7.830;2022-08-03T04:44:39;1.67;;;1.57;;
2728;SDS011;1372;47.956;7.830;2022-08-03T04:47:09;1.80;;;1.70;;
2728;SDS011;1372;47.956;7.830;2022-08-03T04:49:38;1.60;;;1.50;;
2728;SDS011;1372;47.956;7.830;2022-08-03T04:52:09;1.73;;;1.60;;
2728;SDS011;1372;47.956;7.830;2022-08-03T04:54:38;1.70;;;1.60;;
2728;SDS011;1372;47.956;7.830;2022-08-03T04:57:09;2.10;;;1.90;;
2728;SDS011;1372;47.956;7.830;2022-08-03T04:59:51;1.80;;;1.70;;
2728;SDS011;1372;47.956;7.830;2022-08-03T05:02:47;1.83;;;1.73;;
2728;SDS011;1372;47.956;7.830;2022-08-03T05:05:36;4.30;;;1.90;;
2728;SDS011;1372;47.956;7.830;2022-08-03T05:08:18;2.13;;;1.93;;
2728;SDS011;1372;47.956;7.830;2022-08-03T05:11:13;1.90;;;1.80;;
2728;SDS011;1372;47.956;7.830;2022-08-03T05:13:44;2.00;;;1.70;;
2728;SDS011;1372;47.956;7.830;2022-08-03T05:16:14;1.80;;;1.70;;
2728;SDS011;1372;47.956;7.830;2022-08-03T05:19:03;1.63;;;1.53;;
2728;SDS011;1372;47.956;7.830;2022-08-03T05:21:31;1.90;;;1.80;;
2728;SDS011;1372;47.956;7.830;2022-08-03T05:24:09;2.60;;;2.00;;
2728;SDS011;1372;47.956;7.830;2022-08-03T05:26:37;2.10;;;1.83;;
2728;SDS011;1372;47.956;7.830;2022-08-03T05:29:09;2.33;;;2.13;;
2728;SDS011;1372;47.956;7.830;2022-08-03T05:31:39;2.17;;;1.97;;
2728;SDS011;1372;47.956;7.830;2022-08-03T05:34:08;2.23;;;1.93;;
2728;SDS011;1372;47.956;7.830;2022-08-03T05:36:38;2.30;;;2.10;;
2728;SDS011;1372;47.956;7.830;2022-08-03T05:39:08;2.80;;;2.10;;
2728;SDS011;1372;47.956;7.830;2022-08-03T05:41:38;2.63;;;2.43;;
2728;SDS011;1372;47.956;7.830;2022-08-03T05:44:09;1.97;;;1.87;;
2728;SDS011;1372;47.956;7.830;2022-08-03T05:46:38;2.57;;;2.37;;
2728;SDS011;1372;47.956;7.830;2022-08-03T05:49:06;2.67;;;2.13;;
2728;SDS011;1372;47.956;7.830;2022-08-03T05:51:37;2.50;;;2.30;;
2728;SDS011;1372;47.956;7.830;2022-08-03T05:54:27;3.50;;;2.50;;
2728;SDS011;1372;47.956;7.830;2022-08-03T05:57:16;2.67;;;2.30;;
2728;SDS011;1372;47.956;7.830;2022-08-03T05:59:45;2.77;;;2.40;;
2728;SDS011;1372;47.956;7.830;2022-08-03T06:02:19;2.57;;;2.37;;
2728;SDS011;1372;47.956;7.830;2022-08-03T06:04:48;2.93;;;2.33;;
2728;SDS011;1372;47.956;7.830;2022-08-03T06:07:17;2.20;;;2.00;;
2728;SDS011;1372;47.956;7.830;2022-08-03T06:10:08;2.20;;;2.10;;
2728;SDS011;1372;47.956;7.830;2022-08-03T06:12:57;2.40;;;2.03;;
2728;SDS011;1372;47.956;7.830;2022-08-03T06:15:28;2.40;;;2.20;;
2728;SDS011;1372;47.956;7.830;2022-08-03T06:17:59;2.53;;;2.33;;
2728;SDS011;1372;47.956;7.830;2022-08-03T06:20:30;2.07;;;1.87;;
2728;SDS011;1372;47.956;7.830;2022-08-03T06:22:59;2.20;;;2.00;;
2728;SDS011;1372;47.956;7.830;2022-08-03T06:25:29;2.20;;;2.10;;
2728;SDS011;1372;47.956;7.830;2022-08-03T06:27:58;2.10;;;2.00;;
2728;SDS011;1372;47.956;7.830;2022-08-03T06:30:27;2.30;;;2.20;;
2728;SDS011;1372;47.956;7.830;2022-08-03T06:32:56;2.43;;;2.33;;
2728;SDS011;1372;47.956;7.830;2022-08-03T06:35:27;2.27;;;2.10;;
2728;SDS011;1372;47.956;7.830;2022-08-03T06:38:16;2.00;;;1.90;;
2728;SDS011;1372;47.956;7.830;2022-08-03T06:40:46;3.47;;;2.17;;
2728;SDS011;1372;47.956;7.830;2022-08-03T06:43:36;5.07;;;2.10;;
2728;SDS011;1372;47.956;7.830;2022-08-03T06:46:27;2.17;;;2.03;;
2728;SDS011;1372;47.956;7.830;2022-08-03T06:48:56;3.87;;;2.03;;
2728;SDS011;1372;47.956;7.830;2022-08-03T06:51:25;1.80;;;1.70;;
2728;SDS011;1372;47.956;7.830;2022-08-03T06:54:13;2.40;;;2.07;;
2728;SDS011;1372;47.956;7.830;2022-08-03T06:57:06;1.97;;;1.77;;
2728;SDS011;1372;47.956;7.830;2022-08-03T06:59:37;2.40;;;2.20;;
2728;SDS011;1372;47.956;7.830;2022-08-03T07:02:45;2.17;;;1.97;;
2728;SDS011;1372;47.956;7.830;2022-08-03T07:05:34;2.67;;;2.43;;
2728;SDS011;1372;47.956;7.830;2022-08-03T07:08:03;2.50;;;2.30;;
2728;SDS011;1372;47.956;7.830;2022-08-03T07:10:32;2.60;;;2.40;;
2728;SDS011;1372;47.956;7.830;2022-08-03T07:13:03;2.20;;;2.00;;
2728;SDS011;1372;47.956;7.830;2022-08-03T07:15:32;2.23;;;2.03;;
2728;SDS011;1372;47.956;7.830;2022-08-03T07:18:04;2.47;;;2.23;;
2728;SDS011;1372;47.956;7.830;2022-08-03T07:20:35;3.53;;;2.53;;
2728;SDS011;1372;47.956;7.830;2022-08-03T07:23:22;2.50;;;2.17;;
2728;SDS011;1372;47.956;7.830;2022-08-03T07:25:51;2.83;;;2.60;;
2728;SDS011;1372;47.956;7.830;2022-08-03T07:28:41;3.40;;;2.33;;
2728;SDS011;1372;47.956;7.830;2022-08-03T07:31:13;2.53;;;2.33;;
2728;SDS011;1372;47.956;7.830;2022-08-03T07:33:42;3.00;;;2.70;;
2728;SDS011;1372;47.956;7.830;2022-08-03T07:36:11;3.00;;;2.80;;
2728;SDS011;1372;47.956;7.830;2022-08-03T07:38:40;2.47;;;2.27;;
2728;SDS011;1372;47.956;7.830;2022-08-03T07:41:10;2.70;;;2.50;;
2728;SDS011;1372;47.956;7.830;2022-08-03T07:43:39;4.33;;;3.10;;
2728;SDS011;1372;47.956;7.830;2022-08-03T07:46:09;3.30;;;2.87;;
2728;SDS011;1372;47.956;7.830;2022-08-03T07:48:38;3.40;;;3.20;;
2728;SDS011;1372;47.956;7.830;2022-08-03T07:51:07;3.10;;;2.67;;
2728;SDS011;1372;47.956;7.830;2022-08-03T07:53:36;2.73;;;2.53;;
2728;SDS011;1372;47.956;7.830;2022-08-03T07:56:08;2.87;;;2.67;;
2728;SDS011;1372;47.956;7.830;2022-08-03T07:58:39;3.40;;;2.60;;
2728;SDS011;1372;47.956;7.830;2022-08-03T08:01:10;2.93;;;2.73;;
2728;SDS011;1372;47.956;7.830;2022-08-03T08:03:40;2.57;;;2.37;;
2728;SDS011;1372;47.956;7.830;2022-08-03T08:06:18;2.63;;;2.23;;
2728;SDS011;1372;47.956;7.830;2022-08-03T08:08:59;2.53;;;2.33;;
2728;SDS011;1372;47.956;7.830;2022-08-03T08:11:28;2.50;;;2.23;;
2728;SDS011;1372;47.956;7.830;2022-08-03T08:13:57;2.80;;;2.13;;
2728;SDS011;1372;47.956;7.830;2022-08-03T08:16:49;2.70;;;2.50;;
2728;SDS011;1372;47.956;7.830;2022-08-03T08:19:18;2.60;;;2.33;;
2728;SDS011;1372;47.956;7.830;2022-08-03T08:21:50;2.60;;;2.50;;
2728;SDS011;1372;47.956;7.830;2022-08-03T08:24:25;3.10;;;2.80;;
2728;SDS011;1372;47.956;7.830;2022-08-03T08:26:56;2.60;;;2.50;;
2728;SDS011;1372;47.956;7.830;2022-08-03T08:29:47;2.90;;;2.70;;
2728;SDS011;1372;47.956;7.830;2022-08-03T08:32:22;2.43;;;2.23;;
2728;SDS011;1372;47.956;7.830;2022-08-03T08:35:11;3.33;;;3.00;;
2728;SDS011;1372;47.956;7.830;2022-08-03T08:37:40;3.27;;;2.67;;
2728;SDS011;1372;47.956;7.830;2022-08-03T08:40:10;3.00;;;2.70;;
2728;SDS011;1372;47.956;7.830;2022-08-03T08:42:40;2.80;;;2.30;;
2728;SDS011;1372;47.956;7.830;2022-08-03T08:45:23;2.60;;;2.50;;
2728;SDS011;1372;47.956;7.830;2022-08-03T08:47:54;3.37;;;2.97;;
2728;SDS011;1372;47.956;7.830;2022-08-03T08:50:33;2.77;;;2.57;;
2728;SDS011;1372;47.956;7.830;2022-08-03T08:53:06;3.00;;;2.70;;
2728;SDS011;1372;47.956;7.830;2022-08-03T08:55:46;3.07;;;2.80;;
2728;SDS011;1372;47.956;7.830;2022-08-03T08:58:27;3.40;;;3.10;;
2728;SDS011;1372;47.956;7.830;2022-08-03T09:00:58;2.27;;;2.17;;
2728;SDS011;1372;47.956;7.830;2022-08-03T09:03:30;2.93;;;2.73;;
2728;SDS011;1372;47.956;7.830;2022-08-03T09:06:03;3.80;;;2.83;;
2728;SDS011;1372;47.956;7.830;2022-08-03T09:08:52;3.63;;;3.33;;
2728;SDS011;1372;47.956;7.830;2022-08-03T09:11:41;3.40;;;3.20;;
2728;SDS011;1372;47.956;7.830;2022-08-03T09:14:18;3.27;;;3.00;;
2728;SDS011;1372;47.956;7.830;2022-08-03T09:17:05;3.20;;;2.90;;
2728;SDS011;1372;47.956;7.830;2022-08-03T09:19:39;3.00;;;2.80;;
2728;SDS011;1372;47.956;7.830;2022-08-03T09:22:09;3.13;;;2.93;;
2728;SDS011;1372;47.956;7.830;2022-08-03T09:24:52;2.90;;;2.70;;
2728;SDS011;1372;47.956;7.830;2022-08-03T09:27:50;3.07;;;2.87;;
2728;SDS011;1372;47.956;7.830;2022-08-03T09:30:19;3.30;;;2.40;;
2728;SDS011;1372;47.956;7.830;2022-08-03T09:33:00;2.80;;;2.60;;
2728;SDS011;1372;47.956;7.830;2022-08-03T09:35:34;2.97;;;2.73;;
2728;SDS011;1372;47.956;7.830;2022-08-03T09:38:29;2.40;;;2.30;;
2728;SDS011;1372;47.956;7.830;2022-08-03T09:40:58;1.90;;;1.80;;
2728;SDS011;1372;47.956;7.830;2022-08-03T09:43:46;2.80;;;2.60;;
2728;SDS011;1372;47.956;7.830;2022-08-03T09:46:47;2.60;;;2.40;;
2728;SDS011;1372;47.956;7.830;2022-08-03T09:49:19;2.70;;;2.30;;
2728;SDS011;1372;47.956;7.830;2022-08-03T09:51:50;2.57;;;2.37;;
2728;SDS011;1372;47.956;7.830;2022-08-03T09:54:40;2.73;;;2.53;;
2728;SDS011;1372;47.956;7.830;2022-08-03T09:57:20;3.33;;;2.63;;
2728;SDS011;1372;47.956;7.830;2022-08-03T09:59:50;1.90;;;1.80;;
2728;SDS011;1372;47.956;7.830;2022-08-03T10:02:31;2.10;;;1.90;;
2728;SDS011;1372;47.956;7.830;2022-08-03T10:05:00;2.60;;;2.40;;
2728;SDS011;1372;47.956;7.830;2022-08-03T10:07:40;2.90;;;2.33;;
2728;SDS011;1372;47.956;7.830;2022-08-03T10:10:12;2.33;;;2.23;;
2728;SDS011;1372;47.956;7.830;2022-08-03T10:12:55;2.43;;;2.23;;
2728;SDS011;1372;47.956;7.830;2022-08-03T10:15:24;2.60;;;2.40;;
2728;SDS011;1372;47.956;7.830;2022-08-03T10:18:13;2.47;;;2.27;;
2728;SDS011;1372;47.956;7.830;2022-08-03T10:20:43;3.30;;;2.50;;
2728;SDS011;1372;47.956;7.830;2022-08-03T10:23:38;2.83;;;2.63;;
2728;SDS011;1372;47.956;7.830;2022-08-03T10:26:09;2.87;;;2.50;;
2728;SDS011;1372;47.956;7.830;2022-08-03T10:28:45;3.17;;;2.97;;
2728;SDS011;1372;47.956;7.830;2022-08-03T10:31:19;2.70;;;2.50;;
2728;SDS011;1372;47.956;7.830;2022-08-03T10:34:14;2.93;;;2.73;;
2728;SDS011;1372;47.956;7.830;2022-08-03T10:37:09;2.60;;;2.40;;
2728;SDS011;1372;47.956;7.830;2022-08-03T10:39:45;2.50;;;2.30;;
2728;SDS011;1372;47.956;7.830;2022-08-03T10:42:22;2.77;;;2.57;;
2728;SDS011;1372;47.956;7.830;2022-08-03T10:44:55;2.80;;;2.60;;
2728;SDS011;1372;47.956;7.830;2022-08-03T10:47:31;2.80;;;2.60;;
2728;SDS011;1372;47.956;7.830;2022-08-03T10:50:04;2.77;;;2.57;;
2728;SDS011;1372;47.956;7.830;2022-08-03T10:52:35;3.20;;;3.00;;
2728;SDS011;1372;47.956;7.830;2022-08-03T10:55:31;2.93;;;2.73;;
2728;SDS011;1372;47.956;7.830;2022-08-03T11:01:49;2.20;;;2.10;;
2728;SDS011;1372;47.956;7.830;2022-08-03T11:04:20;3.37;;;3.17;;
2728;SDS011;1372;47.956;7.830;2022-08-03T11:07:18;3.03;;;2.83;;
2728;SDS011;1372;47.956;7.830;2022-08-03T11:09:53;3.20;;;2.67;;
2728;SDS011;1372;47.956;7.830;2022-08-03T11:13:06;2.60;;;2.40;;
2728;SDS011;1372;47.956;7.830;2022-08-03T11:15:36;2.33;;;2.23;;
2728;SDS011;1372;47.956;7.830;2022-08-03T11:18:07;2.67;;;2.47;;
2728;SDS011;1372;47.956;7.830;2022-08-03T11:20:43;3.00;;;2.80;;
2728;SDS011;1372;47.956;7.830;2022-08-03T11:23:14;2.83;;;2.63;;
2728;SDS011;1372;47.956;7.830;2022-08-03T11:26:08;4.43;;;2.97;;
2728;SDS011;1372;47.956;7.830;2022-08-03T11:28:43;2.33;;;2.20;;
2728;SDS011;1372;47.956;7.830;2022-08-03T11:34:17;2.40;;;2.20;;
2728;SDS011;1372;47.956;7.830;2022-08-03T11:40:00;2.77;;;2.57;;
2728;SDS011;1372;47.956;7.830;2022-08-03T11:42:40;3.10;;;2.90;;
2728;SDS011;1372;47.956;7.830;2022-08-03T11:45:14;2.50;;;2.40;;
2728;SDS011;1372;47.956;7.830;2022-08-03T11:47:45;2.47;;;2.37;;
2728;SDS011;1372;47.956;7.830;2022-08-03T11:50:17;2.50;;;2.40;;
2728;SDS011;1372;47.956;7.830;2022-08-03T11:53:07;3.10;;;2.80;;
2728;SDS011;1372;47.956;7.830;2022-08-03T11:55:44;2.53;;;2.37;;
2728;SDS011;1372;47.956;7.830;2022-08-03T11:58:16;2.50;;;2.30;;
2728;SDS011;1372;47.956;7.830;2022-08-03T12:01:09;3.30;;;3.00;;
2728;SDS011;1372;47.956;7.830;2022-08-03T12:03:41;2.33;;;2.23;;
2728;SDS011;1372;47.956;7.830;2022-08-03T12:06:12;2.60;;;2.40;;
2728;SDS011;1372;47.956;7.830;2022-08-03T12:08:43;2.87;;;2.67;;
2728;SDS011;1372;47.956;7.830;2022-08-03T12:11:14;2.57;;;2.37;;
2728;SDS011;1372;47.956;7.830;2022-08-03T12:13:43;2.83;;;2.43;;
2728;SDS011;1372;47.956;7.830;2022-08-03T12:16:24;2.57;;;2.37;;
2728;SDS011;1372;47.956;7.830;2022-08-03T12:18:58;2.30;;;2.20;;
2728;SDS011;1372;47.956;7.830;2022-08-03T12:21:29;2.90;;;2.70;;
2728;SDS011;1372;47.956;7.830;2022-08-03T12:23:58;2.50;;;2.30;;
2728;SDS011;1372;47.956;7.830;2022-08-03T12:26:31;3.10;;;2.80;;
2728;SDS011;1372;47.956;7.830;2022-08-03T12:29:15;2.70;;;2.50;;
2728;SDS011;1372;47.956;7.830;2022-08-03T12:31:50;2.43;;;2.20;;
2728;SDS011;1372;47.956;7.830;2022-08-03T12:34:19;2.90;;;2.70;;
2728;SDS011;1372;47.956;7.830;2022-08-03T12:36:49;3.07;;;2.87;;
2728;SDS011;1372;47.956;7.830;2022-08-03T12:39:25;2.83;;;2.63;;
2728;SDS011;1372;47.956;7.830;2022-08-03T12:41:59;2.70;;;2.50;;
2728;SDS011;1372;47.956;7.830;2022-08-03T12:44:28;2.30;;;2.20;;
2728;SDS011;1372;47.956;7.830;2022-08-03T12:47:00;3.33;;;3.13;;
2728;SDS011;1372;47.956;7.830;2022-08-03T12:49:43;2.90;;;2.70;;
2728;SDS011;1372;47.956;7.830;2022-08-03T12:52:14;2.57;;;2.47;;
2728;SDS011;1372;47.956;7.830;2022-08-03T12:54:52;2.90;;;2.70;;
2728;SDS011;1372;47.956;7.830;2022-08-03T12:57:23;2.80;;;2.60;;
2728;SDS011;1372;47.956;7.830;2022-08-03T13:00:12;2.83;;;2.70;;
2728;SDS011;1372;47.956;7.830;2022-08-03T13:02:53;2.80;;;2.60;;
2728;SDS011;1372;47.956;7.830;2022-08-03T13:06:12;3.43;;;3.10;;
2728;SDS011;1372;47.956;7.830;2022-08-03T13:08:42;3.00;;;2.80;;
2728;SDS011;1372;47.956;7.830;2022-08-03T13:11:20;2.77;;;2.53;;
2728;SDS011;1372;47.956;7.830;2022-08-03T13:14:09;2.80;;;2.60;;
2728;SDS011;1372;47.956;7.830;2022-08-03T13:16:39;2.80;;;2.60;;
2728;SDS011;1372;47.956;7.830;2022-08-03T13:19:09;2.90;;;2.70;;
2728;SDS011;1372;47.956;7.830;2022-08-03T13:21:41;2.20;;;2.10;;
2728;SDS011;1372;47.956;7.830;2022-08-03T13:24:39;2.83;;;2.63;;
2728;SDS011;1372;47.956;7.830;2022-08-03T13:27:28;3.13;;;2.93;;
2728;SDS011;1372;47.956;7.830;2022-08-03T13:30:17;2.60;;;2.40;;
2728;SDS011;1372;47.956;7.830;2022-08-03T13:32:58;2.67;;;2.57;;
2728;SDS011;1372;47.956;7.830;2022-08-03T13:35:28;2.63;;;2.43;;
2728;SDS011;1372;47.956;7.830;2022-08-03T13:37:57;2.77;;;2.57;;
2728;SDS011;1372;47.956;7.830;2022-08-03T13:40:26;2.20;;;2.10;;
2728;SDS011;1372;47.956;7.830;2022-08-03T13:43:03;2.80;;;2.23;;
2728;SDS011;1372;47.956;7.830;2022-08-03T13:45:32;2.40;;;2.20;;
2728;SDS011;1372;47.956;7.830;2022-08-03T13:48:01;2.30;;;2.10;;
2728;SDS011;1372;47.956;7.830;2022-08-03T13:50:31;1.50;;;1.40;;
2728;SDS011;1372;47.956;7.830;2022-08-03T13:53:22;2.00;;;1.80;;
2728;SDS011;1372;47.956;7.830;2022-08-03T13:55:51;1.87;;;1.77;;
2728;SDS011;1372;47.956;7.830;2022-08-03T13:58:20;1.63;;;1.50;;
2728;SDS011;1372;47.956;7.830;2022-08-03T14:00:52;1.60;;;1.50;;
2728;SDS011;1372;47.956;7.830;2022-08-03T14:03:21;1.20;;;1.20;;
2728;SDS011;1372;47.956;7.830;2022-08-03T14:05:51;1.20;;;1.10;;
2728;SDS011;1372;47.956;7.830;2022-08-03T14:08:20;1.43;;;1.37;;
2728;SDS011;1372;47.956;7.830;2022-08-03T14:10:49;1.40;;;1.30;;
2728;SDS011;1372;47.956;7.830;2022-08-03T14:13:18;1.10;;;1.10;;
2728;SDS011;1372;47.956;7.830;2022-08-03T14:15:54;2.00;;;1.40;;
2728;SDS011;1372;47.956;7.830;2022-08-03T14:18:23;1.10;;;1.10;;
2728;SDS011;1372;47.956;7.830;2022-08-03T14:20:57;1.23;;;1.20;;
2728;SDS011;1372;47.956;7.830;2022-08-03T14:23:32;1.13;;;1.13;;
2728;SDS011;1372;47.956;7.830;2022-08-03T14:26:22;1.27;;;1.27;;
2728;SDS011;1372;47.956;7.830;2022-08-03T14:28:51;1.30;;;1.30;;
2728;SDS011;1372;47.956;7.830;2022-08-03T14:31:20;1.00;;;1.00;;
2728;SDS011;1372;47.956;7.830;2022-08-03T14:34:28;1.40;;;1.30;;
2728;SDS011;1372;47.956;7.830;2022-08-03T14:36:59;1.70;;;1.23;;
2728;SDS011;1372;47.956;7.830;2022-08-03T14:39:27;0.90;;;0.90;;
2728;SDS011;1372;47.956;7.830;2022-08-03T14:42:36;1.10;;;0.97;;
2728;SDS011;1372;47.956;7.830;2022-08-03T14:45:24;1.10;;;1.10;;
2728;SDS011;1372;47.956;7.830;2022-08-03T14:47:53;0.97;;;0.97;;
2728;SDS011;1372;47.956;7.830;2022-08-03T14:50:42;1.20;;;1.10;;
2728;SDS011;1372;47.956;7.830;2022-08-03T14:53:18;0.90;;;0.90;;
2728;SDS011;1372;47.956;7.830;2022-08-03T14:55:50;1.23;;;1.13;;
2728;SDS011;1372;47.956;7.830;2022-08-03T14:58:19;0.67;;;0.67;;
2728;SDS011;1372;47.956;7.830;2022-08-03T15:00:52;1.20;;;1.10;;
2728;SDS011;1372;47.956;7.830;2022-08-03T15:03:23;1.45;;;1.35;;
2728;SDS011;1372;47.956;7.830;2022-08-03T15:05:55;1.63;;;1.50;;
2728;SDS011;1372;47.956;7.830;2022-08-03T15:08:48;1.77;;;1.67;;
2728;SDS011;1372;47.956;7.830;2022-08-03T15:11:39;1.77;;;1.67;;
2728;SDS011;1372;47.956;7.830;2022-08-03T15:14:17;1.60;;;1.50;;
2728;SDS011;1372;47.956;7.830;2022-08-03T15:17:50;1.58;;;1.50;;
2728;SDS011;1372;47.956;7.830;2022-08-03T15:21:02;1.27;;;1.27;;
2728;SDS011;1372;47.956;7.830;2022-08-03T15:27:30;1.50;;;1.40;;
2728;SDS011;1372;47.956;7.830;2022-08-03T15:30:43;1.38;;;1.27;;
2728;SDS011;1372;47.956;7.830;2022-08-03T15:33:30;1.10;;;1.10;;
2728;SDS011;1372;47.956;7.830;2022-08-03T15:36:04;1.08;;;1.08;;
2728;SDS011;1372;47.956;7.830;2022-08-03T15:38:53;1.00;;;1.00;;
2728;SDS011;1372;47.956;7.830;2022-08-03T15:41:23;1.08;;;1.08;;
2728;SDS011;1372;47.956;7.830;2022-08-03T15:44:11;1.15;;;1.15;;
2728;SDS011;1372;47.956;7.830;2022-08-03T15:46:40;1.40;;;1.30;;
2728;SDS011;1372;47.956;7.830;2022-08-03T15:49:09;1.10;;;1.10;;
2728;SDS011;1372;47.956;7.830;2022-08-03T15:51:38;1.40;;;1.30;;
2728;SDS011;1372;47.956;7.830;2022-08-03T15:54:10;1.38;;;1.27;;
2728;SDS011;1372;47.956;7.830;2022-08-03T15:57:03;1.33;;;1.30;;
2728;SDS011;1372;47.956;7.830;2022-08-03T15:59:32;1.13;;;1.13;;
2728;SDS011;1372;47.956;7.830;2022-08-03T16:02:01;1.45;;;1.42;;
2728;SDS011;1372;47.956;7.830;2022-08-03T16:04:50;1.40;;;1.30;;
2728;SDS011;1372;47.956;7.830;2022-08-03T16:07:19;1.73;;;1.63;;
2728;SDS011;1372;47.956;7.830;2022-08-03T16:10:04;1.50;;;1.40;;
2728;SDS011;1372;47.956;7.830;2022-08-03T16:12:35;1.23;;;1.17;;
2728;SDS011;1372;47.956;7.830;2022-08-03T16:15:06;1.70;;;1.60;;
2728;SDS011;1372;47.956;7.830;2022-08-03T16:17:38;1.70;;;1.60;;
2728;SDS011;1372;47.956;7.830;2022-08-03T16:20:10;2.20;;;1.75;;
2728;SDS011;1372;47.956;7.830;2022-08-03T16:22:55;1.58;;;1.48;;
2728;SDS011;1372;47.956;7.830;2022-08-03T16:25:23;1.52;;;1.42;;
2728;SDS011;1372;47.956;7.830;2022-08-03T16:27:54;2.00;;;1.90;;